METAR Data
IDs: Format: Raw Decoded Include TAF

Data at: 1217 UTC 16 Feb 2019

PAWD 161153Z AUTO 35003KT 10SM CLR M09/M13 A3017 RMK SLP218 T10941133 11072 21100 53013 TSNO $ VIA AUTODIAL
PAWD 161053Z AUTO 36004KT 10SM CLR M09/M14 A3016 RMK SLP212 T10941139 TSNO $ VIA AUTODIAL
PAWD 160953Z AUTO 36003KT 10SM CLR M09/M14 A3015 RMK SLP208 T10891144 TSNO $ VIA AUTODIAL
PAWD 160853Z AUTO 34005KT 10SM CLR M08/M14 A3014 RMK SLP205 T10831144 410221089 52013 TSNO $ VIA AUTODIAL
PAWD 160753Z AUTO 34007KT 10SM CLR M08/M14 A3013 RMK SLP203 T10781144 TSNO $ VIA AUTODIAL
PAWD 160653Z AUTO 36006KT 10SM CLR M08/M14 A3010 RMK SLP194 T10781144 TSNO $ VIA AUTODIAL
PAWD 160553Z AUTO 01009KT 10SM CLR M07/M14 A3010 RMK SLP192 T10721144 11028 21072 51027 TSNO $ VIA AUTODIAL
PAWD 160453Z AUTO 01013KT 10SM CLR M07/M15 A3007 RMK SLP184 T10671150 TSNO $ VIA AUTODIAL
PAWD 160353Z AUTO 02012G19KT 10SM CLR M06/M16 A3005 RMK PK WND 01029/0300 SLP176 T10561156 TSNO $ VIA AUTODIAL
PAWD 160253Z AUTO 02013G21KT 10SM CLR M05/M16 A3002 RMK PK WND 02028/0227 SLP165 T10501156 51010 TSNO $ VIA AUTODIAL
PAWD 160153Z AUTO 01014G23KT 10SM CLR M04/M16 A3002 RMK PK WND 36031/0105 SLP165 T10391161 TSNO VIA AUTODIAL
PAWD 160053Z AUTO 35016G23KT 10SM CLR M03/M16 A3000 RMK SLP160 T10281161 TSNO VIA AUTODIAL
PAWD 152353Z AUTO 36017G25KT 10SM CLR M03/M16 A2999 RMK PK WND 34029/2330 SLP155 T10281161 11022 21056 51014 TSNO VIA AUTODIAL
PAWD 152253Z AUTO 35017G28KT 10SM CLR M03/M17 A2999 RMK PK WND 35031/2243 SLP154 T10281167 TSNO VIA AUTODIAL
PAWD 152153Z AUTO 35014G22KT 10SM CLR M02/M17 A2997 RMK PK WND 34027/2132 SLP148 T10221167 TSNO $ VIA AUTODIAL
PAWD 152053Z AUTO 36016G29KT 10SM CLR M03/M17 A2995 RMK PK WND 35029/2045 SLP142 T10281172 53010 TSNO $ VIA AUTODIAL
PAWD 151953Z AUTO 35022G31KT 10SM CLR M04/M17 A2993 RMK PK WND 35034/1901 SLP134 T10391172 TSNO $ VIA AUTODIAL
PAWD 151853Z AUTO 02018G32KT 10SM CLR M05/M17 A2992 RMK PK WND 36032/1846 SLP133 T10501172 TSNO $ VIA AUTODIAL
PAWD 151753Z AUTO 02014G23KT 10SM CLR M06/M17 A2992 RMK PK WND 04032/1719 SLP132 I6630 T10561172 11050 21061 53012 TSNO $ VIA AUTODIAL
PAWD 151653Z AUTO 02014G29KT 10SM CLR M06/M17 A2989 RMK PK WND 03033/1641 SLP122 T10561167 TSNO $ VIA AUTODIAL
PAWD 151553Z AUTO 03017G32KT 10SM CLR M06/M17 A2988 RMK PK WND 04032/1545 SLP120 T10561172 TSNO $ VIA AUTODIAL
PAWD 151453Z AUTO 36015G32KT 340V040 10SM CLR M06/M17 A2989 RMK PK WND 03034/1432 SLP120 I1630 I3630 T10561167 51009 TSNO $ VIA AUTODIAL
PAWD 151353Z AUTO 02018G29KT 10SM CLR M06/M17 A2988 RMK PK WND 03031/1334 SLP117 T10561167 TSNO $ VIA AUTODIAL
PAWD 151253Z AUTO 03016G32KT 10SM CLR M06/M16 A2988 RMK PK WND 03034/1238 SLP117 T10561156 TSNO $ VIA AUTODIAL
PAWD 151153Z AUTO 01019G28KT 10SM CLR M06/M16 A2986 RMK PK WND 01036/1100 SLP111 T10561156 11050 21061 56011 TSNO $ VIA AUTODIAL
PAWD 151053Z AUTO 02021G34KT 10SM CLR M06/M16 A2986 RMK PK WND 36038/1031 SLP112 T10561161 TSNO $ VIA AUTODIAL
PAWD 150953Z AUTO 35016G28KT 10SM CLR M06/M17 A2986 RMK PK WND 04033/0911 SLP112 T10561167 TSNO $ VIA AUTODIAL
PAWD 150853Z AUTO 02015G25KT 10SM CLR M06/M17 A2989 RMK PK WND 35035/0824 SLP122 T10561172 410331061 53007 TSNO $ VIA AUTODIAL
PAWD 150753Z AUTO 35019G31KT 10SM FEW120 M06/M17 A2988 RMK PK WND 32036/0721 SLP117 T10561172 TSNO $ VIA AUTODIAL
PAWD 150653Z AUTO 35019G35KT 10SM CLR M05/M18 A2987 RMK PK WND 34035/0645 SLP114 T10501178 TSNO $ VIA AUTODIAL
PAWD 150553Z AUTO 01013G21KT 10SM CLR M05/M17 A2987 RMK PK WND 36030/0533 SLP115 T10501172 11039 21061 58016 TSNO $ VIA AUTODIAL
PAWD 150453Z AUTO 35017G31KT 10SM CLR M05/M17 A2989 RMK PK WND 35031/0447 SLP123 T10501172 TSNO $ VIA AUTODIAL
PAWD 150353Z AUTO 36022G34KT 10SM CLR M06/M17 A2991 RMK PK WND 34034/0348 SLP128 T10561167 TSNO $ VIA AUTODIAL
PAWD 150253Z AUTO 36015G34KT 10SM CLR M05/M18 A2992 RMK PK WND 35034/0250 SLP131 T10501178 58006 TSNO $ VIA AUTODIAL
PAWD 150153Z AUTO 34018G39KT 10SM CLR M04/M18 A2993 RMK PK WND 32039/0148 SLP135 T10441178 TSNO $ VIA AUTODIAL
PAWD 150053Z AUTO 33021G32KT 10SM CLR M04/M18 A2994 RMK PK WND 32038/0014 SLP139 T10391183 TSNO $ VIA AUTODIAL